sensor_id;sensor_type;location;lat;lon;timestamp;pressure;altitude;pressure_sealevel;temperature;humidity
29163;BME280;20331;53.144;8.208;2023-02-02T00:09:13;101697.19;;;7.28;76.01
29163;BME280;20331;53.144;8.208;2023-02-02T00:19:34;101694.63;;;7.26;76.65
29163;BME280;20331;53.144;8.208;2023-02-02T00:29:56;101694.66;;;7.19;77.96
29163;BME280;20331;53.144;8.208;2023-02-02T00:40:17;101710.09;;;7.16;77.31
29163;BME280;20331;53.144;8.208;2023-02-02T00:50:39;101723.84;;;7.11;78.42
29163;BME280;20331;53.144;8.208;2023-02-02T01:01:00;101725.56;;;6.94;81.49
29163;BME280;20331;53.144;8.208;2023-02-02T01:11:21;101740.16;;;6.95;80.43
29163;BME280;20331;53.144;8.208;2023-02-02T01:21:43;101735.00;;;6.94;80.99
29163;BME280;20331;53.144;8.208;2023-02-02T01:32:05;101745.28;;;6.89;80.24
29163;BME280;20331;53.144;8.208;2023-02-02T01:42:26;101756.41;;;6.79;81.33
29163;BME280;20331;53.144;8.208;2023-02-02T01:52:48;101769.31;;;6.73;82.67
29163;BME280;20331;53.144;8.208;2023-02-02T02:03:11;101766.72;;;6.67;82.58
29163;BME280;20331;53.144;8.208;2023-02-02T02:13:34;101781.28;;;6.64;81.61
29163;BME280;20331;53.144;8.208;2023-02-02T02:24:22;101795.84;;;6.51;83.18
29163;BME280;20331;53.144;8.208;2023-02-02T02:35:23;101816.34;;;6.33;85.05
29163;BME280;20331;53.144;8.208;2023-02-02T02:45:48;101818.03;;;6.25;84.50
29163;BME280;20331;53.144;8.208;2023-02-02T02:56:17;101824.00;;;6.21;85.35
29163;BME280;20331;53.144;8.208;2023-02-02T03:17:04;101832.59;;;6.17;85.35
29163;BME280;20331;53.144;8.208;2023-02-02T03:27:26;101839.38;;;6.13;85.18
29163;BME280;20331;53.144;8.208;2023-02-02T03:37:48;101842.84;;;6.19;85.12
29163;BME280;20331;53.144;8.208;2023-02-02T03:48:09;101860.84;;;6.17;84.95
29163;BME280;20331;53.144;8.208;2023-02-02T03:58:30;101877.97;;;6.15;84.15
29163;BME280;20331;53.144;8.208;2023-02-02T04:08:52;101889.06;;;6.11;85.17
29163;BME280;20331;53.144;8.208;2023-02-02T04:19:13;101892.47;;;6.08;84.84
29163;BME280;20331;53.144;8.208;2023-02-02T04:29:35;101900.94;;;5.97;85.48
29163;BME280;20331;53.144;8.208;2023-02-02T04:39:56;101913.78;;;5.94;85.23
29163;BME280;20331;53.144;8.208;2023-02-02T04:50:17;101907.72;;;5.84;85.56
29163;BME280;20331;53.144;8.208;2023-02-02T05:00:39;101906.81;;;5.78;85.99
29163;BME280;20331;53.144;8.208;2023-02-02T05:11:04;101910.19;;;5.71;87.36
29163;BME280;20331;53.144;8.208;2023-02-02T05:21:26;101928.91;;;5.61;88.16
29163;BME280;20331;53.144;8.208;2023-02-02T05:31:47;101930.63;;;5.59;87.49
29163;BME280;20331;53.144;8.208;2023-02-02T05:42:09;101934.84;;;5.52;88.36
29163;BME280;20331;53.144;8.208;2023-02-02T05:52:30;101940.00;;;5.54;89.09
29163;BME280;20331;53.144;8.208;2023-02-02T06:02:53;101934.03;;;5.55;89.60
29163;BME280;20331;53.144;8.208;2023-02-02T06:13:15;101950.25;;;5.55;90.60
29163;BME280;20331;53.144;8.208;2023-02-02T06:23:36;101960.59;;;5.58;90.25
29163;BME280;20331;53.144;8.208;2023-02-02T06:33:58;101967.44;;;5.62;90.58
29163;BME280;20331;53.144;8.208;2023-02-02T06:44:19;101992.22;;;5.59;91.12
29163;BME280;20331;53.144;8.208;2023-02-02T06:54:41;101999.09;;;5.63;92.14
29163;BME280;20331;53.144;8.208;2023-02-02T07:05:02;102004.31;;;5.72;91.26
29163;BME280;20331;53.144;8.208;2023-02-02T07:15:24;102018.03;;;5.71;91.15
29163;BME280;20331;53.144;8.208;2023-02-02T07:25:46;102019.72;;;5.72;91.85
29163;BME280;20331;53.144;8.208;2023-02-02T07:36:07;102033.44;;;5.71;92.43
29163;BME280;20331;53.144;8.208;2023-02-02T07:46:29;102055.72;;;5.75;91.84
29163;BME280;20331;53.144;8.208;2023-02-02T07:56:51;102064.38;;;5.83;91.28
29163;BME280;20331;53.144;8.208;2023-02-02T08:07:12;102065.25;;;5.86;90.86
29163;BME280;20331;53.144;8.208;2023-02-02T08:17:35;102085.06;;;5.95;90.20
29163;BME280;20331;53.144;8.208;2023-02-02T08:27:57;102090.28;;;6.04;89.38
29163;BME280;20331;53.144;8.208;2023-02-02T08:38:19;102111.72;;;6.12;88.42
29163;BME280;20331;53.144;8.208;2023-02-02T08:48:40;102134.13;;;6.24;88.36
29163;BME280;20331;53.144;8.208;2023-02-02T08:59:02;102133.38;;;6.35;88.35
29163;BME280;20331;53.144;8.208;2023-02-02T09:09:25;102152.31;;;6.46;88.48
29163;BME280;20331;53.144;8.208;2023-02-02T09:19:46;102158.34;;;6.56;88.28
29163;BME280;20331;53.144;8.208;2023-02-02T09:30:08;102175.59;;;6.64;88.80
29163;BME280;20331;53.144;8.208;2023-02-02T09:40:30;102192.78;;;6.76;88.42
29163;BME280;20331;53.144;8.208;2023-02-02T09:51:00;102197.19;;;6.89;88.66
29163;BME280;20331;53.144;8.208;2023-02-02T10:01:25;102216.19;;;7.04;87.80
29163;BME280;20331;53.144;8.208;2023-02-02T10:11:56;102224.78;;;7.06;88.49
29163;BME280;20331;53.144;8.208;2023-02-02T10:22:20;102228.28;;;7.19;88.95
29163;BME280;20331;53.144;8.208;2023-02-02T10:32:47;102233.59;;;7.48;88.79
29163;BME280;20331;53.144;8.208;2023-02-02T10:43:20;102238.88;;;7.69;88.76
29163;BME280;20331;53.144;8.208;2023-02-02T10:54:19;102268.13;;;7.80;88.78
29163;BME280;20331;53.144;8.208;2023-02-02T11:04:46;102264.66;;;7.84;88.12
29163;BME280;20331;53.144;8.208;2023-02-02T11:15:29;102266.44;;;7.97;88.43
29163;BME280;20331;53.144;8.208;2023-02-02T11:26:00;102272.50;;;8.05;88.19
29163;BME280;20331;53.144;8.208;2023-02-02T11:36:25;102276.81;;;8.12;87.62
29163;BME280;20331;53.144;8.208;2023-02-02T11:46:46;102284.56;;;8.20;87.25
29163;BME280;20331;53.144;8.208;2023-02-02T11:57:09;102268.31;;;8.31;86.64
29163;BME280;20331;53.144;8.208;2023-02-02T12:07:31;102280.38;;;8.41;86.20
29163;BME280;20331;53.144;8.208;2023-02-02T12:18:01;102266.63;;;8.48;85.73
29163;BME280;20331;53.144;8.208;2023-02-02T13:10:44;102251.16;;;8.72;84.27
29163;BME280;20331;53.144;8.208;2023-02-02T13:21:10;102245.16;;;8.75;83.69
29163;BME280;20331;53.144;8.208;2023-02-02T13:31:34;102258.06;;;8.73;83.07
29163;BME280;20331;53.144;8.208;2023-02-02T13:41:59;102268.38;;;8.76;83.14
29163;BME280;20331;53.144;8.208;2023-02-02T14:02:54;102265.78;;;8.81;82.44
29163;BME280;20331;53.144;8.208;2023-02-02T14:13:20;102275.28;;;8.80;82.83
29163;BME280;20331;53.144;8.208;2023-02-02T14:24:03;102266.66;;;8.78;83.24
29163;BME280;20331;53.144;8.208;2023-02-02T14:34:43;102280.41;;;8.85;83.31
29163;BME280;20331;53.144;8.208;2023-02-02T14:55:28;102301.88;;;8.43;84.57
29163;BME280;20331;53.144;8.208;2023-02-02T15:06:00;102314.72;;;8.30;84.72
29163;BME280;20331;53.144;8.208;2023-02-02T15:16:26;102311.19;;;8.17;85.58
29163;BME280;20331;53.144;8.208;2023-02-02T15:26:49;102330.09;;;8.13;85.29
29163;BME280;20331;53.144;8.208;2023-02-02T15:37:13;102352.41;;;8.05;84.96
29163;BME280;20331;53.144;8.208;2023-02-02T15:47:36;102355.81;;;8.01;85.49
29163;BME280;20331;53.144;8.208;2023-02-02T15:58:01;102369.53;;;7.94;85.83
29163;BME280;20331;53.144;8.208;2023-02-02T16:08:23;102378.00;;;7.75;85.15
29163;BME280;20331;53.144;8.208;2023-02-02T16:18:47;102383.06;;;7.63;86.74
29163;BME280;20331;53.144;8.208;2023-02-02T16:29:21;102380.38;;;7.45;87.50
29163;BME280;20331;53.144;8.208;2023-02-02T16:39:42;102397.38;;;7.29;89.39
29163;BME280;20331;53.144;8.208;2023-02-02T17:00:28;102379.34;;;7.25;91.48
29163;BME280;20331;53.144;8.208;2023-02-02T17:21:22;102375.81;;;7.15;93.11
29163;BME280;20331;53.144;8.208;2023-02-02T17:31:44;102387.81;;;7.11;94.14
29163;BME280;20331;53.144;8.208;2023-02-02T17:42:23;102382.63;;;7.08;94.85
29163;BME280;20331;53.144;8.208;2023-02-02T17:52:45;102358.59;;;7.06;95.09
29163;BME280;20331;53.144;8.208;2023-02-02T18:03:09;102352.56;;;7.03;95.43
29163;BME280;20331;53.144;8.208;2023-02-02T18:13:32;102340.53;;;7.05;95.72
29163;BME280;20331;53.144;8.208;2023-02-02T18:23:53;102336.19;;;6.98;95.61
29163;BME280;20331;53.144;8.208;2023-02-02T18:34:15;102319.91;;;6.97;95.74
29163;BME280;20331;53.144;8.208;2023-02-02T18:44:36;102317.34;;;6.97;96.55
29163;BME280;20331;53.144;8.208;2023-02-02T18:54:58;102310.47;;;6.96;95.78
29163;BME280;20331;53.144;8.208;2023-02-02T19:05:20;102289.00;;;6.96;96.50
29163;BME280;20331;53.144;8.208;2023-02-02T19:16:00;102277.88;;;6.95;97.40
29163;BME280;20331;53.144;8.208;2023-02-02T19:26:24;102271.06;;;7.02;97.89
29163;BME280;20331;53.144;8.208;2023-02-02T19:36:45;102261.63;;;7.04;98.18
29163;BME280;20331;53.144;8.208;2023-02-02T19:47:27;102247.13;;;7.12;98.65
29163;BME280;20331;53.144;8.208;2023-02-02T19:57:58;102231.75;;;7.23;98.96
29163;BME280;20331;53.144;8.208;2023-02-02T20:18:57;102217.28;;;7.46;99.04
29163;BME280;20331;53.144;8.208;2023-02-02T20:29:19;102201.03;;;7.59;99.90
29163;BME280;20331;53.144;8.208;2023-02-02T20:39:46;102192.50;;;7.75;100.00
29163;BME280;20331;53.144;8.208;2023-02-02T20:50:08;102201.16;;;7.93;100.00
29163;BME280;20331;53.144;8.208;2023-02-02T21:00:30;102196.06;;;8.22;100.00
29163;BME280;20331;53.144;8.208;2023-02-02T21:10:52;102193.56;;;8.39;98.66
29163;BME280;20331;53.144;8.208;2023-02-02T21:21:13;102196.13;;;8.43;99.03
29163;BME280;20331;53.144;8.208;2023-02-02T21:31:36;102187.53;;;8.47;98.92
29163;BME280;20331;53.144;8.208;2023-02-02T21:52:21;102154.84;;;8.60;97.87
29163;BME280;20331;53.144;8.208;2023-02-02T22:02:43;102137.66;;;8.57;98.43
29163;BME280;20331;53.144;8.208;2023-02-02T22:23:41;102136.78;;;8.70;97.50
29163;BME280;20331;53.144;8.208;2023-02-02T22:34:03;102116.13;;;8.70;97.35
29163;BME280;20331;53.144;8.208;2023-02-02T22:44:24;102075.69;;;8.75;96.94
29163;BME280;20331;53.144;8.208;2023-02-02T22:54:46;102073.09;;;8.80;96.53
29163;BME280;20331;53.144;8.208;2023-02-02T23:05:08;102065.34;;;8.87;95.80
29163;BME280;20331;53.144;8.208;2023-02-02T23:15:30;102073.09;;;8.87;95.64
29163;BME280;20331;53.144;8.208;2023-02-02T23:25:51;102068.75;;;8.92;95.36
29163;BME280;20331;53.144;8.208;2023-02-02T23:36:13;102062.75;;;8.95;95.33
29163;BME280;20331;53.144;8.208;2023-02-02T23:46:35;102065.31;;;9.02;94.39
29163;BME280;20331;53.144;8.208;2023-02-02T23:56:56;102079.06;;;9.04;94.15
